createdAt,value
2023-05-05T00:01:30.704Z,94.10
2023-05-05T00:03:57.578Z,93.90
2023-05-05T00:06:24.474Z,93.90
2023-05-05T00:08:51.358Z,94.00
2023-05-05T00:11:18.231Z,94.60
2023-05-05T00:13:45.351Z,94.80
2023-05-05T00:16:12.194Z,94.90
2023-05-05T00:18:39.044Z,95.20
2023-05-05T00:21:06.076Z,95.70
2023-05-05T00:23:32.930Z,95.80
2023-05-05T00:25:59.802Z,96.00
2023-05-05T00:28:27.524Z,95.80
2023-05-05T00:30:54.442Z,95.60
2023-05-05T00:33:21.346Z,95.40
2023-05-05T00:35:48.246Z,95.60
2023-05-05T00:38:15.061Z,95.80
2023-05-05T00:40:42.364Z,96.00
2023-05-05T00:43:09.323Z,96.00
2023-05-05T00:45:37.560Z,96.30
2023-05-05T00:48:05.643Z,96.30
2023-05-05T00:50:32.629Z,96.50
2023-05-05T00:53:03.849Z,96.40
2023-05-05T00:55:32.460Z,96.30
2023-05-05T00:58:02.631Z,96.20
2023-05-05T01:00:30.116Z,96.20
2023-05-05T01:02:57.386Z,95.70
2023-05-05T01:05:27.052Z,95.80
2023-05-05T01:08:44.625Z,95.60
2023-05-05T01:11:29.356Z,95.30
2023-05-05T01:14:19.182Z,95.20
2023-05-05T01:17:00.125Z,95.40
2023-05-05T01:20:01.135Z,95.00
2023-05-05T01:22:41.526Z,94.90
2023-05-05T01:25:38.604Z,94.80
2023-05-05T01:28:28.550Z,94.60
2023-05-05T01:31:32.873Z,94.60
2023-05-05T01:34:06.065Z,94.60
2023-05-05T01:36:42.240Z,94.50
2023-05-05T01:39:16.158Z,94.60
2023-05-05T01:41:52.668Z,94.60
2023-05-05T01:44:20.399Z,94.60
2023-05-05T01:46:49.518Z,94.70
2023-05-05T01:49:16.858Z,94.70
2023-05-05T01:51:47.218Z,94.80
2023-05-05T01:54:18.696Z,94.90
2023-05-05T01:56:47.590Z,95.10
2023-05-05T01:59:16.001Z,95.10
2023-05-05T02:01:45.900Z,95.10
2023-05-05T02:04:14.549Z,95.10
2023-05-05T02:06:44.343Z,95.00
2023-05-05T02:09:14.327Z,95.10
2023-05-05T02:11:41.561Z,95.20
2023-05-05T02:14:11.278Z,95.40
2023-05-05T02:16:41.213Z,95.00
2023-05-05T02:19:09.876Z,95.10
2023-05-05T02:21:37.708Z,97.70
2023-05-05T02:24:05.389Z,96.50
2023-05-05T02:26:39.224Z,95.90
2023-05-05T02:29:24.437Z,95.70
2023-05-05T02:31:58.283Z,95.60
2023-05-05T02:34:27.989Z,95.90
2023-05-05T02:36:59.050Z,95.70
2023-05-05T02:39:32.933Z,95.80
2023-05-05T02:42:05.721Z,97.60
2023-05-05T02:44:34.469Z,96.90
2023-05-05T02:47:04.894Z,97.70
2023-05-05T02:49:31.857Z,97.90
2023-05-05T02:51:59.070Z,97.30
2023-05-05T02:54:27.717Z,97.20
2023-05-05T02:56:57.757Z,97.10
2023-05-05T02:59:52.844Z,97.10
2023-05-05T03:02:40.940Z,97.00
2023-05-05T03:05:25.093Z,96.90
2023-05-05T03:08:17.571Z,96.90
2023-05-05T03:10:58.940Z,97.50
2023-05-05T03:13:29.154Z,97.70
2023-05-05T03:15:58.593Z,97.60
2023-05-05T03:18:28.078Z,97.70
2023-05-05T03:20:55.328Z,97.90
2023-05-05T03:23:22.884Z,98.10
2023-05-05T03:25:50.391Z,98.20
2023-05-05T03:28:18.204Z,98.40
2023-05-05T03:30:45.233Z,98.60
2023-05-05T03:33:12.121Z,98.60
2023-05-05T03:35:38.960Z,98.70
2023-05-05T03:38:05.908Z,98.70
2023-05-05T03:40:43.577Z,98.70
2023-05-05T03:43:12.083Z,98.70
2023-05-05T03:45:38.994Z,98.60
2023-05-05T03:48:06.962Z,98.50
2023-05-05T03:50:33.851Z,99.70
2023-05-05T03:53:00.928Z,99.90
2023-05-05T03:55:27.792Z,99.70
2023-05-05T03:57:54.689Z,99.50
2023-05-05T04:00:21.914Z,99.60
2023-05-05T04:02:48.889Z,99.50
2023-05-05T04:05:16.086Z,99.50
2023-05-05T04:07:43.011Z,99.60
2023-05-05T04:10:10.211Z,99.60
2023-05-05T04:12:37.289Z,99.70
2023-05-05T04:15:04.756Z,99.80
2023-05-05T04:17:31.630Z,99.70
2023-05-05T04:19:58.449Z,99.70
2023-05-05T04:22:25.282Z,99.80
2023-05-05T04:24:52.347Z,99.90
2023-05-05T04:27:19.191Z,99.90
2023-05-05T04:29:46.479Z,99.90
2023-05-05T04:32:13.385Z,99.50
2023-05-05T04:34:40.219Z,99.50
2023-05-05T04:37:07.059Z,99.90
2023-05-05T04:39:34.106Z,99.90
2023-05-05T04:42:02.239Z,99.90
2023-05-05T04:44:29.220Z,99.90
2023-05-05T04:46:56.247Z,99.90
2023-05-05T04:49:23.197Z,99.90
2023-05-05T04:51:50.022Z,99.90
2023-05-05T04:54:16.956Z,99.90
2023-05-05T04:56:43.872Z,99.90
2023-05-05T04:59:10.822Z,99.90
2023-05-05T05:01:38.701Z,99.90
2023-05-05T05:04:05.789Z,99.80
2023-05-05T05:06:32.771Z,99.90
2023-05-05T05:08:59.933Z,99.90
2023-05-05T05:11:27.212Z,99.90
2023-05-05T05:13:54.304Z,99.90
2023-05-05T05:16:21.936Z,99.90
2023-05-05T05:18:48.782Z,99.90
2023-05-05T05:21:15.714Z,99.70
2023-05-05T05:23:42.567Z,99.30
2023-05-05T05:26:09.541Z,98.30
2023-05-05T05:28:36.432Z,97.20
2023-05-05T05:31:03.325Z,96.20
2023-05-05T05:33:30.293Z,95.20
2023-05-05T05:35:57.173Z,95.20
2023-05-05T05:38:24.012Z,95.20
2023-05-05T05:40:50.931Z,94.80
2023-05-05T05:43:17.743Z,94.40
2023-05-05T05:45:44.668Z,93.30
2023-05-05T05:48:11.639Z,92.20
2023-05-05T05:50:38.629Z,92.10
2023-05-05T05:53:05.640Z,92.00
2023-05-05T05:55:32.599Z,91.30
2023-05-05T05:58:00.206Z,90.90
2023-05-05T06:00:27.414Z,90.40
2023-05-05T06:02:54.452Z,89.80
2023-05-05T06:05:21.455Z,89.10
2023-05-05T06:07:48.332Z,87.80
2023-05-05T06:10:26.601Z,87.00
2023-05-05T06:12:55.142Z,86.00
2023-05-05T06:15:22.006Z,84.00
2023-05-05T06:17:48.929Z,82.60
2023-05-05T06:20:15.837Z,81.80
2023-05-05T06:22:42.914Z,82.40
2023-05-05T06:25:09.995Z,82.30
2023-05-05T06:27:36.793Z,78.60
2023-05-05T06:30:04.107Z,78.20
2023-05-05T06:32:31.365Z,77.30
2023-05-05T06:34:58.219Z,75.20
2023-05-05T06:37:25.173Z,74.70
2023-05-05T06:39:51.950Z,74.00
2023-05-05T06:42:18.877Z,74.00
2023-05-05T06:44:45.764Z,72.90
2023-05-05T06:47:12.791Z,73.70
2023-05-05T06:49:39.651Z,73.40
2023-05-05T06:52:08.299Z,74.10
2023-05-05T06:54:35.361Z,74.40
2023-05-05T06:57:02.298Z,75.10
2023-05-05T06:59:29.212Z,75.20
2023-05-05T07:01:56.549Z,75.20
2023-05-05T07:04:23.464Z,76.00
2023-05-05T07:06:50.338Z,76.80
2023-05-05T07:09:17.675Z,77.30
2023-05-05T07:11:44.613Z,77.60
2023-05-05T07:14:11.501Z,78.10
2023-05-05T07:16:39.083Z,78.30
2023-05-05T07:19:06.392Z,79.50
2023-05-05T07:21:34.581Z,79.20
2023-05-05T07:24:03.358Z,79.20
2023-05-05T07:26:30.309Z,78.90
2023-05-05T07:28:58.969Z,78.00
2023-05-05T07:31:26.632Z,78.40
2023-05-05T07:33:53.815Z,78.40
2023-05-05T07:36:20.976Z,78.60
2023-05-05T07:38:48.079Z,78.00
2023-05-05T07:41:15.006Z,76.50
2023-05-05T07:43:44.242Z,75.10
2023-05-05T07:46:12.250Z,73.20
2023-05-05T07:48:41.671Z,73.30
2023-05-05T07:51:09.313Z,73.60
2023-05-05T07:53:36.661Z,73.80
2023-05-05T07:56:04.015Z,73.40
2023-05-05T07:58:31.034Z,72.70
2023-05-05T08:00:59.471Z,71.60
2023-05-05T08:03:26.598Z,70.40
2023-05-05T08:05:55.443Z,69.10
2023-05-05T08:08:25.223Z,67.50
2023-05-05T08:10:53.116Z,67.10
2023-05-05T08:13:20.449Z,67.50
2023-05-05T08:15:47.716Z,68.20
2023-05-05T08:18:14.968Z,67.30
2023-05-05T08:20:42.008Z,68.10
2023-05-05T08:23:08.906Z,68.20
2023-05-05T08:25:36.084Z,68.70
2023-05-05T08:28:03.194Z,68.30
2023-05-05T08:30:30.728Z,67.60
2023-05-05T08:32:57.822Z,69.00
2023-05-05T08:35:24.808Z,68.40
2023-05-05T08:37:51.983Z,69.50
2023-05-05T08:40:24.997Z,69.70
2023-05-05T08:42:51.876Z,71.30
2023-05-05T08:45:18.732Z,72.20
2023-05-05T08:47:45.881Z,71.80
2023-05-05T08:50:13.860Z,72.10
2023-05-05T08:52:51.357Z,71.00
2023-05-05T08:55:29.422Z,71.30
2023-05-05T08:57:58.345Z,72.90
2023-05-05T09:00:27.262Z,74.00
2023-05-05T09:02:58.249Z,74.40
2023-05-05T09:05:26.761Z,75.20
2023-05-05T09:07:54.308Z,74.10
2023-05-05T09:10:21.779Z,72.40
2023-05-05T09:12:51.145Z,71.70
2023-05-05T09:15:18.328Z,71.60
2023-05-05T09:17:45.489Z,70.50
2023-05-05T09:20:14.911Z,70.00
2023-05-05T09:22:47.010Z,68.40
2023-05-05T09:25:18.297Z,68.60
2023-05-05T09:27:48.575Z,68.20
2023-05-05T09:30:18.288Z,69.20
2023-05-05T09:32:51.677Z,69.00
2023-05-05T09:35:19.783Z,67.00
2023-05-05T09:37:47.273Z,66.40
2023-05-05T09:40:17.083Z,66.80
2023-05-05T09:42:47.345Z,65.20
2023-05-05T09:45:20.419Z,65.30
2023-05-05T09:47:48.778Z,66.90
2023-05-05T09:50:19.001Z,68.00
2023-05-05T09:53:03.747Z,67.00
2023-05-05T09:55:33.888Z,65.30
2023-05-05T09:58:30.865Z,64.40
2023-05-05T10:00:59.161Z,62.20
2023-05-05T10:03:26.417Z,63.10
2023-05-05T10:05:56.451Z,63.30
2023-05-05T10:08:25.949Z,63.20
2023-05-05T10:10:59.613Z,62.50
2023-05-05T10:13:27.868Z,62.40
2023-05-05T10:15:57.779Z,62.10
2023-05-05T10:18:28.752Z,61.70
2023-05-05T10:21:01.225Z,62.90
2023-05-05T10:23:52.600Z,65.00
2023-05-05T10:26:22.618Z,64.90
2023-05-05T10:28:56.051Z,65.10
2023-05-05T10:31:49.307Z,64.80
2023-05-05T10:34:54.823Z,63.70
2023-05-05T10:37:22.913Z,62.80
2023-05-05T10:39:52.634Z,61.70
2023-05-05T10:42:23.594Z,64.00
2023-05-05T10:44:51.383Z,66.30
2023-05-05T10:47:21.381Z,66.20
2023-05-05T10:50:11.985Z,62.60
2023-05-05T10:53:16.156Z,59.80
2023-05-05T10:56:10.831Z,60.40
2023-05-05T10:58:58.240Z,63.60
2023-05-05T11:01:35.427Z,64.60
2023-05-05T11:04:23.361Z,65.70
2023-05-05T11:07:11.051Z,67.70
2023-05-05T11:09:59.056Z,67.00
2023-05-05T11:12:26.026Z,66.20
2023-05-05T11:15:28.238Z,64.60
2023-05-05T11:18:01.517Z,64.30
2023-05-05T11:20:36.353Z,65.30
2023-05-05T11:23:03.284Z,64.50
2023-05-05T11:25:36.670Z,64.70
2023-05-05T11:28:08.830Z,65.70
2023-05-05T11:30:57.513Z,65.70
2023-05-05T11:33:33.479Z,65.40
2023-05-05T11:36:06.158Z,66.10
2023-05-05T11:38:54.794Z,66.40
2023-05-05T11:41:35.809Z,66.40
2023-05-05T11:44:16.359Z,67.10
2023-05-05T11:46:52.284Z,66.90
2023-05-05T11:49:34.940Z,67.80
2023-05-05T11:52:12.448Z,68.70
2023-05-05T11:54:47.968Z,69.00
2023-05-05T11:57:31.492Z,69.50
2023-05-05T12:00:10.698Z,70.60
2023-05-05T12:02:37.924Z,71.10
2023-05-05T12:05:05.663Z,71.80
2023-05-05T12:07:33.620Z,72.90
2023-05-05T12:10:01.195Z,74.20
2023-05-05T12:12:40.131Z,76.90
2023-05-05T12:15:08.927Z,80.10
2023-05-05T12:17:46.139Z,84.10
2023-05-05T12:20:13.738Z,89.20
2023-05-05T12:22:41.022Z,89.80
2023-05-05T12:25:08.949Z,93.60
2023-05-05T12:27:36.248Z,92.70
2023-05-05T12:30:17.935Z,92.90
2023-05-05T12:32:45.959Z,93.70
2023-05-05T12:35:13.774Z,94.50
2023-05-05T12:37:41.776Z,96.20
2023-05-05T12:40:44.938Z,97.70
2023-05-05T12:43:44.461Z,99.90
2023-05-05T12:46:12.728Z,99.60
2023-05-05T12:48:45.111Z,99.90
2023-05-05T12:51:23.371Z,99.90
2023-05-05T12:54:09.946Z,99.90
2023-05-05T12:56:47.716Z,99.90
2023-05-05T12:59:24.039Z,99.90
2023-05-05T13:02:02.795Z,99.90
2023-05-05T13:04:29.926Z,99.90
2023-05-05T13:07:18.147Z,99.90
2023-05-05T13:09:45.983Z,99.90
2023-05-05T13:12:13.868Z,99.90
2023-05-05T13:14:41.915Z,99.90
2023-05-05T13:17:10.081Z,99.90
2023-05-05T13:19:42.045Z,99.90
2023-05-05T13:22:13.257Z,99.90
2023-05-05T13:24:50.737Z,99.90
2023-05-05T13:27:19.346Z,99.90
2023-05-05T13:29:46.725Z,99.90
2023-05-05T13:32:13.936Z,99.90
2023-05-05T13:34:41.548Z,99.90
2023-05-05T13:37:08.727Z,99.90
2023-05-05T13:39:36.981Z,99.90
2023-05-05T13:42:04.086Z,99.90
2023-05-05T13:44:31.397Z,99.90
2023-05-05T13:46:58.416Z,99.90
2023-05-05T13:49:25.701Z,99.30
2023-05-05T13:51:52.581Z,99.40
2023-05-05T13:54:19.495Z,98.40
2023-05-05T13:56:46.551Z,98.70
2023-05-05T13:59:13.600Z,98.80
2023-05-05T14:01:40.805Z,98.50
2023-05-05T14:04:08.084Z,98.40
2023-05-05T14:06:36.099Z,98.20
2023-05-05T14:09:05.972Z,97.70
2023-05-05T14:11:33.396Z,98.00
2023-05-05T14:14:00.704Z,98.00
2023-05-05T14:16:27.661Z,98.20
2023-05-05T14:18:54.589Z,98.60
2023-05-05T14:21:21.515Z,98.00
2023-05-05T14:23:48.351Z,99.40
2023-05-05T14:26:15.297Z,99.90
2023-05-05T14:28:43.561Z,99.90
2023-05-05T14:31:11.203Z,99.90
2023-05-05T14:33:38.236Z,99.90
2023-05-05T14:36:05.653Z,99.90
2023-05-05T14:38:32.729Z,99.90
2023-05-05T14:40:59.787Z,99.90
2023-05-05T14:43:26.820Z,99.90
2023-05-05T14:45:53.837Z,99.90
2023-05-05T14:48:22.400Z,99.90
2023-05-05T14:50:49.952Z,99.90
2023-05-05T14:53:18.849Z,99.90
2023-05-05T14:55:45.811Z,99.90
2023-05-05T14:58:12.689Z,99.70
2023-05-05T15:00:39.584Z,99.90
2023-05-05T15:03:06.546Z,99.40
2023-05-05T15:05:33.475Z,98.90
2023-05-05T15:08:00.338Z,98.90
2023-05-05T15:10:27.626Z,99.40
2023-05-05T15:12:54.515Z,99.70
2023-05-05T15:15:21.364Z,98.90
2023-05-05T15:17:48.384Z,98.30
2023-05-05T15:20:15.303Z,98.50
2023-05-05T15:22:42.161Z,98.30
2023-05-05T15:25:12.274Z,98.10
2023-05-05T15:27:39.935Z,97.80
2023-05-05T15:30:07.657Z,97.80
2023-05-05T15:32:34.595Z,97.30
2023-05-05T15:35:01.694Z,97.30
2023-05-05T15:37:29.792Z,97.10
2023-05-05T15:39:56.921Z,97.00
2023-05-05T15:42:24.522Z,96.20
2023-05-05T15:44:52.051Z,96.00
2023-05-05T15:47:19.472Z,95.40
2023-05-05T15:49:46.333Z,95.40
2023-05-05T15:52:13.994Z,94.80
2023-05-05T15:54:41.439Z,94.30
2023-05-05T15:57:08.418Z,93.80
2023-05-05T15:59:35.980Z,93.70
2023-05-05T16:02:02.863Z,93.90
2023-05-05T16:04:29.981Z,93.90
2023-05-05T16:06:57.981Z,93.70
2023-05-05T16:09:24.903Z,93.80
2023-05-05T16:11:54.430Z,93.60
2023-05-05T16:14:21.424Z,93.30
2023-05-05T16:16:48.523Z,93.20
2023-05-05T16:19:15.914Z,92.80
2023-05-05T16:21:42.857Z,93.00
2023-05-05T16:24:09.700Z,93.30
2023-05-05T16:26:36.904Z,93.10
2023-05-05T16:29:03.824Z,93.30
2023-05-05T16:31:32.067Z,93.30
2023-05-05T16:33:58.880Z,93.20
2023-05-05T16:36:26.240Z,93.30
2023-05-05T16:38:53.990Z,93.40
2023-05-05T16:41:22.502Z,92.90
2023-05-05T16:43:50.255Z,93.10
2023-05-05T16:46:17.257Z,93.30
2023-05-05T16:48:44.200Z,93.30
2023-05-05T16:51:11.098Z,94.00
2023-05-05T16:53:37.955Z,94.10
2023-05-05T16:56:05.077Z,94.00
2023-05-05T16:58:32.359Z,94.60
2023-05-05T17:01:01.823Z,94.80
2023-05-05T17:03:28.673Z,95.00
2023-05-05T17:05:55.888Z,95.70
2023-05-05T17:08:23.564Z,96.30
2023-05-05T17:10:50.549Z,97.80
2023-05-05T17:13:17.480Z,97.80
2023-05-05T17:15:44.478Z,98.00
2023-05-05T17:18:11.429Z,98.50
2023-05-05T17:20:38.393Z,99.90
2023-05-05T17:23:05.294Z,99.90
2023-05-05T17:25:32.580Z,99.70
2023-05-05T17:27:59.626Z,99.90
2023-05-05T17:30:26.513Z,99.90
2023-05-05T17:32:53.737Z,99.90
2023-05-05T17:35:21.328Z,99.90
2023-05-05T17:37:48.196Z,99.90
2023-05-05T17:40:15.140Z,99.90
2023-05-05T17:42:41.969Z,99.90
2023-05-05T17:45:10.029Z,99.90
2023-05-05T17:47:37.489Z,99.90
2023-05-05T17:50:04.918Z,99.90
2023-05-05T17:52:31.820Z,99.90
2023-05-05T17:54:58.654Z,99.90
2023-05-05T17:57:25.488Z,99.90
2023-05-05T17:59:53.672Z,99.90
2023-05-05T18:02:20.967Z,99.90
2023-05-05T18:04:47.919Z,99.90
2023-05-05T18:07:14.880Z,99.90
2023-05-05T18:09:42.508Z,99.90
2023-05-05T18:12:09.741Z,99.90
2023-05-05T18:14:36.737Z,99.90
2023-05-05T18:17:04.644Z,99.90
2023-05-05T18:19:31.586Z,99.90
2023-05-05T18:21:59.055Z,99.90
2023-05-05T18:24:26.183Z,99.90
2023-05-05T18:26:53.154Z,99.90
2023-05-05T18:29:21.856Z,99.90
2023-05-05T18:31:51.980Z,99.90
2023-05-05T18:34:22.215Z,99.90
2023-05-05T18:36:51.425Z,99.90
2023-05-05T18:39:18.407Z,99.90
2023-05-05T18:41:45.322Z,99.90
2023-05-05T18:44:12.230Z,99.90
2023-05-05T18:46:39.174Z,99.90
2023-05-05T18:49:06.310Z,99.90
2023-05-05T18:51:33.177Z,99.90
2023-05-05T18:54:03.577Z,99.90
2023-05-05T18:56:30.749Z,99.90
2023-05-05T18:58:57.794Z,99.90
2023-05-05T19:01:24.716Z,99.90
2023-05-05T19:03:51.651Z,99.90
2023-05-05T19:06:18.557Z,99.90
2023-05-05T19:08:46.608Z,99.90
2023-05-05T19:11:15.012Z,99.90
2023-05-05T19:13:42.563Z,99.90
2023-05-05T19:16:11.245Z,99.90
2023-05-05T19:18:38.674Z,99.90
2023-05-05T19:21:05.707Z,99.90
2023-05-05T19:23:33.427Z,99.90
2023-05-05T19:26:00.653Z,99.90
2023-05-05T19:28:27.525Z,99.90
2023-05-05T19:30:54.450Z,99.90
2023-05-05T19:33:21.474Z,99.90
2023-05-05T19:35:48.702Z,99.90
2023-05-05T19:38:15.789Z,99.90
2023-05-05T19:40:43.710Z,99.90
2023-05-05T19:43:10.713Z,99.90
2023-05-05T19:45:37.779Z,99.90
2023-05-05T19:48:05.119Z,99.90
2023-05-05T19:50:32.097Z,99.90
2023-05-05T19:52:59.052Z,99.90
2023-05-05T19:55:25.953Z,99.90
2023-05-05T19:57:52.872Z,99.90
2023-05-05T20:00:20.016Z,99.90
2023-05-05T20:02:48.606Z,99.90
2023-05-05T20:05:17.269Z,99.90
2023-05-05T20:07:47.020Z,99.90
2023-05-05T20:10:14.298Z,99.90
2023-05-05T20:12:47.742Z,99.90
2023-05-05T20:15:21.726Z,99.90
2023-05-05T20:17:49.772Z,99.90
2023-05-05T20:20:20.903Z,99.90
2023-05-05T20:22:49.547Z,99.90
2023-05-05T20:25:16.708Z,99.90
2023-05-05T20:27:43.827Z,99.90
2023-05-05T20:30:12.251Z,99.90
2023-05-05T20:32:39.610Z,99.90
2023-05-05T20:35:07.364Z,99.90
2023-05-05T20:37:34.369Z,99.90
2023-05-05T20:40:01.267Z,99.90
2023-05-05T20:42:29.656Z,99.90
2023-05-05T20:44:56.784Z,99.90
2023-05-05T20:47:24.396Z,99.90
2023-05-05T20:49:52.552Z,99.90
2023-05-05T20:52:19.984Z,99.90
2023-05-05T20:54:46.847Z,99.90
2023-05-05T20:57:13.867Z,99.90
2023-05-05T20:59:40.726Z,99.90
2023-05-05T21:02:07.840Z,99.90
2023-05-05T21:04:35.013Z,99.90
2023-05-05T21:07:01.886Z,99.90
2023-05-05T21:09:29.062Z,99.90
2023-05-05T21:11:55.946Z,99.90
2023-05-05T21:14:23.443Z,99.90
2023-05-05T21:16:50.291Z,99.90
2023-05-05T21:19:17.205Z,99.90
2023-05-05T21:21:44.323Z,99.90
2023-05-05T21:24:13.023Z,99.90
2023-05-05T21:26:44.240Z,99.90
2023-05-05T21:29:11.713Z,99.90
2023-05-05T21:31:38.654Z,99.90
2023-05-05T21:34:05.652Z,99.90
2023-05-05T21:36:33.894Z,99.90
2023-05-05T21:39:01.069Z,99.90
2023-05-05T21:41:28.083Z,99.90
2023-05-05T21:43:55.199Z,99.90
2023-05-05T21:46:22.073Z,99.90
2023-05-05T21:48:48.958Z,99.90
2023-05-05T21:51:15.902Z,99.90
2023-05-05T21:53:43.046Z,99.90
2023-05-05T21:56:09.973Z,99.90
2023-05-05T21:58:36.826Z,99.90
2023-05-05T22:01:03.949Z,99.90
2023-05-05T22:03:31.021Z,99.90
2023-05-05T22:05:58.061Z,99.90
2023-05-05T22:08:24.963Z,99.90
2023-05-05T22:10:52.361Z,99.90
2023-05-05T22:13:19.340Z,99.90
2023-05-05T22:15:47.522Z,99.90
2023-05-05T22:18:15.512Z,99.90
2023-05-05T22:20:42.632Z,99.90
2023-05-05T22:23:09.581Z,99.90
2023-05-05T22:25:36.480Z,99.90
2023-05-05T22:28:03.572Z,99.90
2023-05-05T22:30:30.771Z,99.90
2023-05-05T22:32:57.736Z,99.90
2023-05-05T22:35:24.960Z,99.90
2023-05-05T22:37:51.873Z,99.90
2023-05-05T22:40:18.793Z,99.90
2023-05-05T22:42:45.652Z,99.90
2023-05-05T22:45:14.138Z,99.90
2023-05-05T22:47:41.137Z,99.90
2023-05-05T22:50:09.134Z,99.90
2023-05-05T22:52:36.599Z,99.90
2023-05-05T22:55:03.769Z,99.90
2023-05-05T22:57:30.841Z,99.90
2023-05-05T22:59:57.704Z,99.90
2023-05-05T23:02:26.548Z,99.90
2023-05-05T23:04:53.706Z,99.90
2023-05-05T23:07:20.838Z,99.90
2023-05-05T23:09:47.787Z,99.90
2023-05-05T23:12:14.675Z,99.90
2023-05-05T23:14:41.865Z,99.90
2023-05-05T23:17:08.951Z,99.90
2023-05-05T23:19:36.512Z,99.90
2023-05-05T23:22:04.352Z,99.90
2023-05-05T23:24:31.940Z,99.90
2023-05-05T23:27:03.459Z,99.90
2023-05-05T23:29:32.125Z,99.90
2023-05-05T23:31:58.980Z,99.90
2023-05-05T23:34:26.613Z,99.90
2023-05-05T23:36:53.487Z,99.90
2023-05-05T23:39:20.476Z,99.90
2023-05-05T23:41:47.386Z,99.90
2023-05-05T23:44:14.245Z,99.90
2023-05-05T23:46:41.193Z,99.90
2023-05-05T23:49:08.795Z,99.90
2023-05-05T23:51:36.266Z,99.90
2023-05-05T23:54:03.317Z,99.90
2023-05-05T23:56:30.443Z,99.90
2023-05-05T23:58:57.381Z,99.90
